createdAt,value
2022-09-18T00:02:00.239Z,98.10
2022-09-18T00:04:35.140Z,98.30
2022-09-18T00:07:06.012Z,98.30
2022-09-18T00:09:34.447Z,98.30
2022-09-18T00:12:02.678Z,98.30
2022-09-18T00:14:31.209Z,98.30
2022-09-18T00:16:59.710Z,98.40
2022-09-18T00:19:27.926Z,98.30
2022-09-18T00:21:56.142Z,98.30
2022-09-18T00:24:24.665Z,98.40
2022-09-18T00:26:54.767Z,98.40
2022-09-18T00:29:23.060Z,98.40
2022-09-18T00:31:57.472Z,98.50
2022-09-18T00:34:26.134Z,98.40
2022-09-18T00:36:54.915Z,98.40
2022-09-18T00:39:23.510Z,98.40
2022-09-18T00:41:51.790Z,98.50
2022-09-18T00:44:37.974Z,98.50
2022-09-18T00:47:12.808Z,98.50
2022-09-18T00:49:53.283Z,98.50
2022-09-18T00:52:25.038Z,98.40
2022-09-18T00:55:08.115Z,98.40
2022-09-18T00:57:43.015Z,98.50
2022-09-18T01:00:12.648Z,98.50
2022-09-18T01:02:46.512Z,98.40
2022-09-18T01:05:25.702Z,98.20
2022-09-18T01:08:17.296Z,98.30
2022-09-18T01:11:09.411Z,98.30
2022-09-18T01:14:15.263Z,98.50
2022-09-18T01:17:20.768Z,98.50
2022-09-18T01:20:15.383Z,98.40
2022-09-18T01:23:17.422Z,98.40
2022-09-18T01:25:56.302Z,98.40
2022-09-18T01:28:41.561Z,98.40
2022-09-18T01:31:35.347Z,98.50
2022-09-18T01:34:14.122Z,98.70
2022-09-18T01:36:54.688Z,98.70
2022-09-18T01:39:35.057Z,98.70
2022-09-18T01:42:05.554Z,98.60
2022-09-18T01:44:40.914Z,98.60
2022-09-18T01:47:15.170Z,98.60
2022-09-18T01:49:47.890Z,98.60
2022-09-18T01:52:29.167Z,98.70
2022-09-18T01:55:04.319Z,98.60
2022-09-18T01:57:58.722Z,98.70
2022-09-18T02:00:31.958Z,98.60
2022-09-18T02:03:16.109Z,98.70
2022-09-18T02:05:48.963Z,98.70
2022-09-18T02:08:42.910Z,98.60
2022-09-18T02:11:19.401Z,98.60
2022-09-18T02:14:33.259Z,98.50
2022-09-18T02:17:50.919Z,98.50
2022-09-18T02:20:29.059Z,98.50
2022-09-18T02:23:02.968Z,98.50
2022-09-18T02:25:39.341Z,98.50
2022-09-18T02:28:10.130Z,98.60
2022-09-18T02:30:42.751Z,98.70
2022-09-18T02:33:36.240Z,98.70
2022-09-18T02:36:10.593Z,98.80
2022-09-18T02:38:59.255Z,98.70
2022-09-18T02:41:59.013Z,99.00
2022-09-18T02:44:41.133Z,98.80
2022-09-18T02:47:41.677Z,98.80
2022-09-18T02:50:30.755Z,98.80
2022-09-18T02:53:13.510Z,98.80
2022-09-18T02:56:11.448Z,98.70
2022-09-18T02:58:56.348Z,98.80
2022-09-18T03:01:28.008Z,98.80
2022-09-18T03:04:06.298Z,98.80
2022-09-18T03:06:54.586Z,98.80
2022-09-18T03:09:23.135Z,98.80
2022-09-18T03:11:52.335Z,98.80
2022-09-18T03:14:24.181Z,98.80
2022-09-18T03:16:52.355Z,98.90
2022-09-18T03:19:22.276Z,98.80
2022-09-18T03:21:54.207Z,98.90
2022-09-18T03:24:25.588Z,98.80
2022-09-18T03:26:54.391Z,98.80
2022-09-18T03:29:25.516Z,98.80
2022-09-18T03:31:54.808Z,98.80
2022-09-18T03:34:26.512Z,98.80
2022-09-18T03:36:54.477Z,98.80
2022-09-18T03:39:28.184Z,98.90
2022-09-18T03:42:04.130Z,98.90
2022-09-18T03:44:36.418Z,98.80
2022-09-18T03:47:13.414Z,99.00
2022-09-18T03:49:42.071Z,99.00
2022-09-18T03:52:20.005Z,99.10
2022-09-18T03:54:55.503Z,99.10
2022-09-18T03:58:02.658Z,99.10
2022-09-18T04:00:43.764Z,99.20
2022-09-18T04:03:23.414Z,99.20
2022-09-18T04:06:29.474Z,99.20
2022-09-18T04:09:17.436Z,99.30
2022-09-18T04:11:50.911Z,99.30
2022-09-18T04:14:29.294Z,99.30
2022-09-18T04:17:03.297Z,99.30
2022-09-18T04:19:35.189Z,99.40
2022-09-18T04:22:07.675Z,99.40
2022-09-18T04:24:39.957Z,99.50
2022-09-18T04:27:09.723Z,99.50
2022-09-18T04:29:43.434Z,99.50
2022-09-18T04:32:14.041Z,99.50
2022-09-18T04:34:43.671Z,99.60
2022-09-18T04:37:21.976Z,99.60
2022-09-18T04:39:53.416Z,99.70
2022-09-18T04:42:34.618Z,99.70
2022-09-18T04:45:03.911Z,99.70
2022-09-18T04:47:32.179Z,99.80
2022-09-18T04:50:09.567Z,99.80
2022-09-18T04:52:41.096Z,99.90
2022-09-18T04:55:11.530Z,99.90
2022-09-18T04:57:45.399Z,99.90
2022-09-18T05:00:15.018Z,99.80
2022-09-18T05:02:43.463Z,99.80
2022-09-18T05:05:14.738Z,99.80
2022-09-18T05:07:46.710Z,99.80
2022-09-18T05:10:17.498Z,99.70
2022-09-18T05:15:24.584Z,99.70
2022-09-18T05:18:01.973Z,99.60
2022-09-18T05:20:31.846Z,99.60
2022-09-18T05:23:09.876Z,99.60
2022-09-18T05:25:43.006Z,99.50
2022-09-18T05:28:13.985Z,99.20
2022-09-18T05:30:46.249Z,99.20
2022-09-18T05:33:15.321Z,99.10
2022-09-18T05:35:43.942Z,99.20
2022-09-18T05:38:13.043Z,99.30
2022-09-18T05:40:45.491Z,99.20
2022-09-18T05:43:16.252Z,99.10
2022-09-18T05:45:49.761Z,99.50
2022-09-18T05:48:35.156Z,99.50
2022-09-18T05:51:07.965Z,99.40
2022-09-18T05:53:37.480Z,99.50
2022-09-18T05:56:12.223Z,99.50
2022-09-18T05:58:47.986Z,99.60
2022-09-18T06:01:17.047Z,99.50
2022-09-18T06:04:14.594Z,99.30
2022-09-18T06:06:52.440Z,99.30
2022-09-18T06:09:25.144Z,99.20
2022-09-18T06:11:56.113Z,99.30
2022-09-18T06:14:25.426Z,99.40
2022-09-18T06:16:55.133Z,99.50
2022-09-18T06:19:23.664Z,99.50
2022-09-18T06:22:05.978Z,99.50
2022-09-18T06:24:35.369Z,99.50
2022-09-18T06:27:13.766Z,99.50
2022-09-18T06:29:44.142Z,99.50
2022-09-18T06:32:16.849Z,99.60
2022-09-18T06:34:44.981Z,99.60
2022-09-18T06:37:17.814Z,99.50
2022-09-18T06:39:46.557Z,99.40
2022-09-18T06:42:27.172Z,99.50
2022-09-18T06:45:22.134Z,99.40
2022-09-18T06:47:56.257Z,99.50
2022-09-18T06:50:26.231Z,99.40
2022-09-18T06:52:55.517Z,99.50
2022-09-18T06:55:24.156Z,99.40
2022-09-18T06:58:00.539Z,99.40
2022-09-18T07:00:32.079Z,99.30
2022-09-18T07:03:02.856Z,99.00
2022-09-18T07:05:46.159Z,99.00
2022-09-18T07:08:30.812Z,99.10
2022-09-18T07:11:12.876Z,98.90
2022-09-18T07:13:48.543Z,98.80
2022-09-18T07:16:18.138Z,99.00
2022-09-18T07:18:49.047Z,98.90
2022-09-18T07:21:23.795Z,98.90
2022-09-18T07:23:52.158Z,98.70
2022-09-18T07:26:23.379Z,98.70
2022-09-18T07:28:53.029Z,98.50
2022-09-18T07:31:26.770Z,98.60
2022-09-18T07:33:57.159Z,98.50
2022-09-18T07:36:29.136Z,98.60
2022-09-18T07:38:59.960Z,98.70
2022-09-18T07:41:36.329Z,98.70
2022-09-18T07:44:08.884Z,98.30
2022-09-18T07:46:37.539Z,98.40
2022-09-18T07:49:14.429Z,98.50
2022-09-18T07:51:43.055Z,98.40
2022-09-18T07:54:13.553Z,98.20
2022-09-18T07:57:06.497Z,98.20
2022-09-18T08:00:00.336Z,98.00
2022-09-18T08:02:28.665Z,97.90
2022-09-18T08:04:57.936Z,97.60
2022-09-18T08:07:41.252Z,97.50
2022-09-18T08:10:37.486Z,97.40
2022-09-18T08:13:38.356Z,97.50
2022-09-18T08:16:33.129Z,97.50
2022-09-18T08:19:22.352Z,97.30
2022-09-18T08:21:58.243Z,97.30
2022-09-18T08:24:27.049Z,97.20
2022-09-18T08:26:57.744Z,97.10
2022-09-18T08:29:26.196Z,96.90
2022-09-18T08:32:05.477Z,96.30
2022-09-18T08:34:38.127Z,96.50
2022-09-18T08:37:09.900Z,96.50
2022-09-18T08:39:57.580Z,96.40
2022-09-18T08:43:07.134Z,96.30
2022-09-18T08:46:03.151Z,96.10
2022-09-18T08:48:47.232Z,96.00
2022-09-18T08:51:53.041Z,95.90
2022-09-18T08:54:34.645Z,95.30
2022-09-18T08:57:38.837Z,95.10
2022-09-18T09:00:37.037Z,95.30
2022-09-18T09:03:41.218Z,95.30
2022-09-18T09:06:29.137Z,95.30
2022-09-18T09:09:26.159Z,95.50
2022-09-18T09:12:13.831Z,95.20
2022-09-18T09:15:07.852Z,94.80
2022-09-18T09:17:42.617Z,94.30
2022-09-18T09:20:37.469Z,94.80
2022-09-18T09:23:36.868Z,94.60
2022-09-18T09:26:25.977Z,94.40
2022-09-18T09:29:32.264Z,94.40
2022-09-18T09:32:36.762Z,94.20
2022-09-18T09:35:51.901Z,94.10
2022-09-18T09:38:53.506Z,94.40
2022-09-18T09:41:29.740Z,94.60
2022-09-18T09:44:06.355Z,94.40
2022-09-18T09:46:54.979Z,94.20
2022-09-18T09:49:23.378Z,94.20
2022-09-18T09:51:55.387Z,94.30
2022-09-18T09:54:23.768Z,94.30
2022-09-18T09:57:07.439Z,94.00
2022-09-18T09:59:57.320Z,94.20
2022-09-18T10:03:05.512Z,94.10
2022-09-18T10:05:43.459Z,94.00
2022-09-18T10:08:28.676Z,94.20
2022-09-18T10:11:03.552Z,94.00
2022-09-18T10:14:04.680Z,93.70
2022-09-18T10:16:46.220Z,93.50
2022-09-18T10:19:19.567Z,94.00
2022-09-18T10:21:58.158Z,93.80
2022-09-18T10:24:35.648Z,93.60
2022-09-18T10:27:19.327Z,93.80
2022-09-18T10:29:50.322Z,93.20
2022-09-18T10:32:53.549Z,93.30
2022-09-18T10:35:31.053Z,93.20
2022-09-18T10:38:00.434Z,93.60
2022-09-18T10:40:38.721Z,93.70
2022-09-18T10:43:21.426Z,93.60
2022-09-18T10:45:57.794Z,93.50
2022-09-18T10:48:43.943Z,93.20
2022-09-18T10:51:21.229Z,93.30
2022-09-18T10:54:06.238Z,92.90
2022-09-18T10:56:54.821Z,92.50
2022-09-18T10:59:30.475Z,92.70
2022-09-18T11:02:05.820Z,92.80
2022-09-18T11:04:37.301Z,92.50
2022-09-18T11:07:12.049Z,92.70
2022-09-18T11:09:42.706Z,92.70
2022-09-18T11:12:23.395Z,92.60
2022-09-18T11:15:17.095Z,92.60
2022-09-18T11:17:58.051Z,92.80
2022-09-18T11:20:32.601Z,92.90
2022-09-18T11:23:19.296Z,92.60
2022-09-18T11:25:48.350Z,92.50
2022-09-18T11:28:33.065Z,92.40
2022-09-18T11:31:16.726Z,92.40
2022-09-18T11:33:57.465Z,92.70
2022-09-18T11:36:33.446Z,92.50
2022-09-18T11:39:22.577Z,92.50
2022-09-18T11:41:58.060Z,92.60
2022-09-18T11:44:33.032Z,92.60
2022-09-18T11:47:18.264Z,92.70
2022-09-18T11:50:25.676Z,92.40
2022-09-18T11:53:02.014Z,92.10
2022-09-18T11:56:13.231Z,92.10
2022-09-18T11:59:13.422Z,91.30
2022-09-18T12:01:53.172Z,91.70
2022-09-18T12:04:51.646Z,91.10
2022-09-18T12:07:42.151Z,90.60
2022-09-18T12:10:47.116Z,90.90
2022-09-18T12:13:43.832Z,90.50
2022-09-18T12:16:35.496Z,88.90
2022-09-18T12:19:27.937Z,90.10
2022-09-18T12:22:20.992Z,90.20
2022-09-18T12:24:53.922Z,89.40
2022-09-18T12:28:28.447Z,90.00
2022-09-18T12:31:40.371Z,89.10
2022-09-18T12:34:44.267Z,89.30
2022-09-18T12:37:12.595Z,88.80
2022-09-18T12:40:07.447Z,90.10
2022-09-18T12:43:26.967Z,89.70
2022-09-18T12:46:43.337Z,90.00
2022-09-18T12:49:42.114Z,89.70
2022-09-18T12:53:08.467Z,89.70
2022-09-18T12:56:06.605Z,89.40
2022-09-18T12:58:48.193Z,90.00
2022-09-18T13:01:42.699Z,90.30
2022-09-18T13:05:02.468Z,90.40
2022-09-18T13:07:37.851Z,90.40
2022-09-18T13:10:41.544Z,90.60
2022-09-18T13:13:38.398Z,90.90
2022-09-18T13:16:19.765Z,91.20
2022-09-18T13:19:28.604Z,91.30
2022-09-18T13:22:02.413Z,91.70
2022-09-18T13:24:41.124Z,91.80
2022-09-18T13:27:16.824Z,91.50
2022-09-18T13:29:58.244Z,91.90
2022-09-18T13:32:36.718Z,91.90
2022-09-18T13:35:14.099Z,92.30
2022-09-18T13:37:44.251Z,92.60
2022-09-18T13:40:41.693Z,92.60
2022-09-18T13:43:39.873Z,92.90
2022-09-18T13:46:33.619Z,93.00
2022-09-18T13:49:25.788Z,93.20
2022-09-18T13:52:00.604Z,93.10
2022-09-18T13:54:37.934Z,92.90
2022-09-18T13:57:17.620Z,93.20
2022-09-18T14:00:00.864Z,93.30
2022-09-18T14:02:37.809Z,92.90
2022-09-18T14:05:28.420Z,93.00
2022-09-18T14:08:10.349Z,93.00
2022-09-18T14:10:59.457Z,92.90
2022-09-18T14:13:39.407Z,92.90
2022-09-18T14:16:39.141Z,92.90
2022-09-18T14:19:33.580Z,93.20
2022-09-18T14:22:28.274Z,93.20
2022-09-18T14:25:05.377Z,93.30
2022-09-18T14:28:04.049Z,93.50
2022-09-18T14:30:38.819Z,93.60
2022-09-18T14:33:19.260Z,93.60
2022-09-18T14:36:06.206Z,93.60
2022-09-18T14:38:45.218Z,93.70
2022-09-18T14:41:28.812Z,93.70
2022-09-18T14:44:07.412Z,93.80
2022-09-18T14:46:51.452Z,93.80
2022-09-18T14:49:57.046Z,93.90
2022-09-18T14:52:32.791Z,94.10
2022-09-18T14:55:13.490Z,94.10
2022-09-18T14:58:06.951Z,94.10
2022-09-18T15:00:37.200Z,94.50
2022-09-18T15:03:19.930Z,94.40
2022-09-18T15:05:53.989Z,94.60
2022-09-18T15:08:27.533Z,94.60
2022-09-18T15:10:59.562Z,94.60
2022-09-18T15:13:30.597Z,94.50
2022-09-18T15:16:06.606Z,94.60
2022-09-18T15:18:45.077Z,94.80
2022-09-18T15:21:47.052Z,94.90
2022-09-18T15:24:20.305Z,95.20
2022-09-18T15:27:06.391Z,95.30
2022-09-18T15:29:44.493Z,95.00
2022-09-18T15:32:38.746Z,95.00
2022-09-18T15:35:22.566Z,95.10
2022-09-18T15:37:54.512Z,95.20
2022-09-18T15:40:41.257Z,95.60
2022-09-18T15:43:30.743Z,95.60
2022-09-18T15:46:33.527Z,95.90
2022-09-18T15:49:26.134Z,95.80
2022-09-18T15:51:57.026Z,95.90
2022-09-18T15:57:16.758Z,96.10
2022-09-18T15:59:48.554Z,96.10
2022-09-18T16:02:30.821Z,96.10
2022-09-18T16:05:10.199Z,96.30
2022-09-18T16:08:06.190Z,96.50
2022-09-18T16:10:37.476Z,96.60
2022-09-18T16:13:14.799Z,96.60
2022-09-18T16:15:47.942Z,96.70
2022-09-18T16:18:32.403Z,96.70
2022-09-18T16:21:14.798Z,96.70
2022-09-18T16:23:59.248Z,96.80
2022-09-18T16:26:36.433Z,96.80
2022-09-18T16:29:14.624Z,96.80
2022-09-18T16:31:51.526Z,96.80
2022-09-18T16:34:26.047Z,96.90
2022-09-18T16:36:56.365Z,96.90
2022-09-18T16:39:26.795Z,97.00
2022-09-18T16:42:00.971Z,97.10
2022-09-18T16:44:29.699Z,97.10
2022-09-18T16:47:12.421Z,97.20
2022-09-18T16:49:51.582Z,97.30
2022-09-18T16:52:20.203Z,97.40
2022-09-18T16:54:58.032Z,97.40
2022-09-18T16:57:30.209Z,97.60
2022-09-18T17:00:05.193Z,97.60
2022-09-18T17:02:37.411Z,97.70
2022-09-18T17:05:06.902Z,97.80
2022-09-18T17:07:36.122Z,97.70
2022-09-18T17:10:05.294Z,97.80
2022-09-18T17:12:36.482Z,97.90
2022-09-18T17:15:06.199Z,97.90
2022-09-18T17:17:36.033Z,98.00
2022-09-18T17:20:14.744Z,98.00
2022-09-18T17:22:51.312Z,97.90
2022-09-18T17:25:20.066Z,97.80
2022-09-18T17:28:00.244Z,97.90
2022-09-18T17:30:29.410Z,97.80
2022-09-18T17:33:00.487Z,97.70
2022-09-18T17:35:41.041Z,97.70
2022-09-18T17:38:11.966Z,97.70
2022-09-18T17:40:42.333Z,97.50
2022-09-18T17:43:17.187Z,97.50
2022-09-18T17:45:57.193Z,97.40
2022-09-18T17:48:29.669Z,97.50
2022-09-18T17:51:06.294Z,97.50
2022-09-18T17:53:38.163Z,97.50
2022-09-18T17:56:13.111Z,97.40
2022-09-18T17:58:44.571Z,97.50
2022-09-18T18:01:19.045Z,97.50
2022-09-18T18:03:49.303Z,97.50
2022-09-18T18:06:22.417Z,97.50
2022-09-18T18:08:52.930Z,97.50
2022-09-18T18:11:22.986Z,97.60
2022-09-18T18:13:53.063Z,97.50
2022-09-18T18:16:31.079Z,97.50
2022-09-18T18:19:03.662Z,97.60
2022-09-18T18:21:38.520Z,97.60
2022-09-18T18:24:17.300Z,97.60
2022-09-18T18:26:48.839Z,97.80
2022-09-18T18:29:19.797Z,97.80
2022-09-18T18:31:49.703Z,97.70
2022-09-18T18:34:22.698Z,97.80
2022-09-18T18:36:53.818Z,97.90
2022-09-18T18:39:24.101Z,97.90
2022-09-18T18:41:52.823Z,97.90
2022-09-18T18:44:27.787Z,97.80
2022-09-18T18:47:02.142Z,97.80
2022-09-18T18:49:34.458Z,97.80
2022-09-18T18:52:12.616Z,97.80
2022-09-18T18:54:41.863Z,97.70
2022-09-18T18:57:10.468Z,97.60
2022-09-18T18:59:38.769Z,97.50
2022-09-18T19:02:12.191Z,97.40
2022-09-18T19:04:51.252Z,97.20
2022-09-18T19:07:23.944Z,97.20
2022-09-18T19:09:57.319Z,97.10
2022-09-18T19:12:31.617Z,97.10
2022-09-18T19:15:11.184Z,97.00
2022-09-18T19:17:50.734Z,97.00
2022-09-18T19:20:20.854Z,97.00
2022-09-18T19:23:03.365Z,97.00
2022-09-18T19:25:35.464Z,97.00
2022-09-18T19:28:10.868Z,97.10
2022-09-18T19:30:40.259Z,97.00
2022-09-18T19:33:17.074Z,96.70
2022-09-18T19:35:51.165Z,96.80
2022-09-18T19:38:25.990Z,96.80
2022-09-18T19:40:56.495Z,96.80
2022-09-18T19:43:32.195Z,96.80
2022-09-18T19:46:14.408Z,96.80
2022-09-18T19:48:54.507Z,96.80
2022-09-18T19:51:31.536Z,96.90
2022-09-18T19:54:02.945Z,96.70
2022-09-18T19:56:43.238Z,96.90
2022-09-18T19:59:14.125Z,96.70
2022-09-18T20:01:44.031Z,96.90
2022-09-18T20:04:17.294Z,96.90
2022-09-18T20:06:48.703Z,97.10
2022-09-18T20:09:20.759Z,97.10
2022-09-18T20:11:49.141Z,97.10
2022-09-18T20:14:20.140Z,97.20
2022-09-18T20:16:49.231Z,97.20
2022-09-18T20:19:24.650Z,97.10
2022-09-18T20:21:55.151Z,97.00
2022-09-18T20:24:30.007Z,97.10
2022-09-18T20:27:01.538Z,97.10
2022-09-18T20:29:34.022Z,97.20
2022-09-18T20:32:11.069Z,97.10
2022-09-18T20:34:47.902Z,97.10
2022-09-18T20:37:24.942Z,97.20
2022-09-18T20:40:16.826Z,97.20
2022-09-18T20:42:54.619Z,97.20
2022-09-18T20:45:29.866Z,97.30
2022-09-18T20:48:00.019Z,97.40
2022-09-18T20:50:40.258Z,97.30
2022-09-18T20:53:09.573Z,97.40
2022-09-18T20:55:38.302Z,97.40
2022-09-18T20:58:15.520Z,97.50
2022-09-18T21:00:48.997Z,97.50
2022-09-18T21:03:20.544Z,97.50
2022-09-18T21:06:21.405Z,97.50
2022-09-18T21:09:08.440Z,97.70
2022-09-18T21:11:42.446Z,97.70
2022-09-18T21:14:16.471Z,97.70
2022-09-18T21:16:56.296Z,97.70
2022-09-18T21:19:26.435Z,97.80
2022-09-18T21:21:55.449Z,97.80
2022-09-18T21:24:26.608Z,97.80
2022-09-18T21:27:00.593Z,97.80
2022-09-18T21:29:32.214Z,97.80
2022-09-18T21:32:03.369Z,97.80
2022-09-18T21:34:35.313Z,97.80
2022-09-18T21:37:10.550Z,97.90
2022-09-18T21:39:49.916Z,97.90
2022-09-18T21:42:22.652Z,97.90
2022-09-18T21:44:53.956Z,97.80
2022-09-18T21:47:23.115Z,97.90
2022-09-18T21:50:03.937Z,97.90
2022-09-18T21:52:32.192Z,97.90
2022-09-18T21:55:03.716Z,97.90
2022-09-18T21:57:38.666Z,98.00
2022-09-18T22:00:09.748Z,98.10
2022-09-18T22:02:43.537Z,98.20
2022-09-18T22:05:16.819Z,98.20
2022-09-18T22:07:49.026Z,98.30
2022-09-18T22:10:17.678Z,98.40
2022-09-18T22:12:46.303Z,98.30
2022-09-18T22:15:21.864Z,98.40
2022-09-18T22:17:53.153Z,98.40
2022-09-18T22:20:22.466Z,98.30
2022-09-18T22:22:57.321Z,98.30
2022-09-18T22:25:29.195Z,98.30
2022-09-18T22:28:00.125Z,98.30
2022-09-18T22:30:32.372Z,98.40
2022-09-18T22:33:06.524Z,98.30
2022-09-18T22:35:37.205Z,98.40
2022-09-18T22:38:13.015Z,98.30
2022-09-18T22:40:41.719Z,98.40
2022-09-18T22:43:15.811Z,98.40
2022-09-18T22:45:44.961Z,98.40
2022-09-18T22:48:16.762Z,98.40
2022-09-18T22:50:47.548Z,98.30
2022-09-18T22:53:16.133Z,98.40
2022-09-18T22:55:44.850Z,98.30
2022-09-18T22:58:14.101Z,98.30
2022-09-18T23:00:49.539Z,98.20
2022-09-18T23:03:23.315Z,98.30
2022-09-18T23:05:53.092Z,98.20
2022-09-18T23:08:36.604Z,98.20
2022-09-18T23:11:11.584Z,98.20
2022-09-18T23:13:43.025Z,98.20
2022-09-18T23:16:15.177Z,98.20
2022-09-18T23:18:52.611Z,98.20
2022-09-18T23:21:32.139Z,98.10
2022-09-18T23:24:09.590Z,98.20
2022-09-18T23:26:44.295Z,98.20
2022-09-18T23:29:19.792Z,98.20
2022-09-18T23:31:52.492Z,98.10
2022-09-18T23:34:31.967Z,98.40
2022-09-18T23:37:06.288Z,98.20
2022-09-18T23:39:45.126Z,98.00
2022-09-18T23:42:14.305Z,98.10
2022-09-18T23:44:42.727Z,98.00
2022-09-18T23:47:14.413Z,98.00
2022-09-18T23:49:46.571Z,98.00
2022-09-18T23:52:17.142Z,98.00
2022-09-18T23:54:48.779Z,98.00
2022-09-18T23:57:17.939Z,98.00
2022-09-18T23:59:53.565Z,97.90
